Time;durP1;ratioP1;P1;durP2;ratioP2;P2;SDS_P1;SDS_P2;PMS_P1;PMS_P2;Temp;Humidity;BMP_temperature;BMP_pressure;BME280_temperature;BME280_humidity;BME280_pressure;Samples;Min_cycle;Max_cycle;Signal;HPM_P1;HPM_P2
2021/06/20 00:02:01;;;;;;;4.05;1.00;;;;;;;40.67;44.28;161924.41;1778405;79;21357;-86
2021/06/20 00:04:33;;;;;;;1.82;1.40;;;;;;;40.62;44.33;161910.97;1779070;80;21761;-86
2021/06/20 00:07:06;;;;;;;1.25;0.98;;;;;;;40.63;44.32;161914.97;1779017;80;21368;-86
2021/06/20 00:09:38;;;;;;;3.33;1.00;;;;;;;40.66;44.28;161921.72;1778449;80;21805;-86
2021/06/20 00:12:11;;;;;;;1.60;1.10;;;;;;;40.63;44.25;161914.97;1771435;80;21345;-86
2021/06/20 00:14:44;;;;;;;2.87;1.20;;;;;;;40.59;44.33;161904.28;1771748;81;21357;-86
2021/06/20 00:17:16;;;;;;;1.75;1.10;;;;;;;40.62;44.29;161910.97;1771595;81;21230;-86
2021/06/20 00:19:48;;;;;;;3.25;0.98;;;;;;;40.62;44.25;161910.97;1771786;81;21298;-86
2021/06/20 00:22:21;;;;;;;1.27;0.90;;;;;;;40.56;44.32;161896.20;1771382;81;21159;-86
2021/06/20 00:24:53;;;;;;;2.33;1.10;;;;;;;40.58;44.32;161900.22;1771778;81;21156;-86
2021/06/20 00:27:26;;;;;;;1.10;1.00;;;;;;;40.62;44.21;161912.34;1771492;79;21178;-86
2021/06/20 00:29:58;;;;;;;1.35;1.25;;;;;;;40.55;44.30;161892.20;1771625;81;21380;-85
2021/06/20 00:32:30;;;;;;;1.45;1.20;;;;;;;40.55;44.29;161893.52;1771743;81;21170;-86
2021/06/20 00:35:04;;;;;;;1.55;1.00;;;;;;;40.54;44.29;161890.83;1771434;81;21167;-85
2021/06/20 00:37:36;;;;;;;1.45;1.15;;;;;;;40.52;44.33;161884.13;1771575;81;21234;-85
2021/06/20 00:40:09;;;;;;;2.05;1.10;;;;;;;40.46;44.38;161869.37;1771653;81;21168;-85
2021/06/20 00:42:41;;;;;;;2.65;0.90;;;;;;;40.42;44.47;161857.31;1762405;81;21285;-85
2021/06/20 00:45:16;;;;;;;3.02;1.05;;;;;;;40.47;44.37;161872.06;1771139;81;21233;-86
2021/06/20 00:47:49;;;;;;;1.30;1.10;;;;;;;40.48;44.33;161873.38;1771622;80;21178;-86
2021/06/20 00:50:22;;;;;;;2.40;1.07;;;;;;;40.44;44.39;161864.00;1771509;81;21206;-85
2021/06/20 00:52:58;;;;;;;1.77;1.15;;;;;;;40.39;44.43;161850.61;1771552;81;21867;-86
2021/06/20 00:55:33;;;;;;;3.10;1.12;;;;;;;40.36;44.48;161841.19;1771536;81;21202;-85
2021/06/20 00:58:07;;;;;;;2.12;1.02;;;;;;;40.39;44.45;161850.61;1771614;81;21357;-85
2021/06/20 01:00:40;;;;;;;1.87;1.10;;;;;;;40.33;44.52;161833.13;1771571;81;21218;-86
2021/06/20 01:03:12;;;;;;;1.22;1.00;;;;;;;40.30;44.56;161826.38;1771833;80;21333;-86
2021/06/20 01:05:45;;;;;;;1.77;1.02;;;;;;;40.32;44.51;161831.75;1771542;80;21241;-85
2021/06/20 01:08:17;;;;;;;2.12;1.10;;;;;;;40.26;44.59;161814.31;1771426;81;21218;-86
2021/06/20 01:10:51;;;;;;;2.22;1.12;;;;;;;40.21;44.69;161800.92;1772882;79;21167;-87
2021/06/20 01:13:23;;;;;;;1.67;0.90;;;;;;;40.17;44.72;161791.48;1771407;80;21429;-86
2021/06/20 01:15:55;;;;;;;4.53;1.10;;;;;;;40.15;44.86;161786.16;1772900;81;21377;-86
2021/06/20 01:22:30;;;;;;;;;;;;;;;40.11;44.83;161774.05;1773969;80;21241;-85
2021/06/20 01:25:07;;;;;;;2.10;1.22;;;;;;;40.10;44.79;161772.72;1772566;81;20237;-84
2021/06/20 01:27:51;;;;;;;1.70;1.00;;;;;;;40.00;44.94;161745.91;1771621;80;21266;-84
2021/06/20 01:30:27;;;;;;;2.42;1.20;;;;;;;40.00;44.94;161745.91;1770799;81;21183;-85
2021/06/20 01:33:00;;;;;;;1.72;1.10;;;;;;;40.04;45.10;161756.66;1770841;80;21187;-85
2021/06/20 01:35:32;;;;;;;4.75;1.05;;;;;;;40.04;45.10;161756.66;1770929;81;21357;-85
2021/06/20 01:38:07;;;;;;;1.00;0.88;;;;;;;40.07;44.85;161763.34;1770865;81;21186;-85
2021/06/20 01:40:39;;;;;;;1.70;1.22;;;;;;;40.11;44.76;161774.05;1770989;81;21227;-85
2021/06/20 01:43:11;;;;;;;1.70;1.32;;;;;;;40.10;44.75;161772.72;1772533;79;21320;-85
2021/06/20 01:45:44;;;;;;;1.20;1.10;;;;;;;40.08;44.78;161767.34;1771544;81;21875;-85
2021/06/20 01:48:17;;;;;;;1.45;1.05;;;;;;;40.08;44.75;161767.34;1771732;81;21809;-85
2021/06/20 01:50:49;;;;;;;2.62;1.00;;;;;;;40.07;44.79;161763.34;1772711;81;21188;-85
2021/06/20 01:53:22;;;;;;;3.00;1.20;;;;;;;40.04;44.80;161755.28;1772379;80;21785;-85
2021/06/20 01:55:56;;;;;;;2.20;1.15;;;;;;;40.04;44.80;161755.28;1772080;81;21348;-85
2021/06/20 01:58:28;;;;;;;1.42;1.02;;;;;;;40.09;44.75;161768.72;1771948;80;21230;-85
2021/06/20 02:01:01;;;;;;;3.50;1.15;;;;;;;40.15;44.56;161786.16;1772231;80;21171;-84
2021/06/20 02:03:34;;;;;;;2.25;1.30;;;;;;;40.08;44.69;161767.34;1772370;80;21361;-84
2021/06/20 02:06:06;;;;;;;1.82;1.02;;;;;;;40.07;44.66;161763.34;1770891;81;21218;-85
2021/06/20 02:08:39;;;;;;;1.02;0.93;;;;;;;40.10;44.63;161771.41;1771887;81;21388;-85
2021/06/20 02:11:11;;;;;;;1.80;1.05;;;;;;;40.09;44.62;161770.03;1770892;81;21238;-85
2021/06/20 02:13:44;;;;;;;1.22;1.12;;;;;;;40.20;44.45;161799.55;1773057;81;21785;-86
2021/06/20 02:16:17;;;;;;;5.00;1.57;;;;;;;40.25;44.31;161812.98;1771061;80;21235;-85
2021/06/20 02:18:50;;;;;;;1.32;1.00;;;;;;;40.22;44.33;161803.61;1770767;81;21273;-86
2021/06/20 02:21:22;;;;;;;2.15;1.10;;;;;;;40.20;44.34;161798.23;1770888;81;21175;-86
2021/06/20 02:23:54;;;;;;;0.90;0.90;;;;;;;40.26;44.29;161815.67;1771909;81;21174;-86
2021/06/20 02:26:27;;;;;;;2.40;1.20;;;;;;;40.24;44.20;161808.94;1778081;80;21226;-85
2021/06/20 02:28:59;;;;;;;1.70;1.20;;;;;;;39.94;44.61;161728.47;1771822;81;21341;-85
2021/06/20 02:31:31;;;;;;;1.30;1.00;;;;;;;39.92;44.75;161721.72;1787235;80;21824;-85
2021/06/20 02:34:04;;;;;;;1.45;1.10;;;;;;;39.88;44.84;161710.97;1787082;80;21229;-85
2021/06/20 02:36:38;;;;;;;1.17;1.00;;;;;;;39.84;44.94;161700.22;1778042;79;21733;-86
2021/06/20 02:39:10;;;;;;;2.58;1.27;;;;;;;39.84;44.94;161700.22;1770776;81;21258;-85
2021/06/20 02:41:46;;;;;;;1.32;1.10;;;;;;;39.79;44.99;161686.84;1770823;81;21222;-85
2021/06/20 02:44:17;;;;;;;1.20;1.10;;;;;;;39.81;44.99;161692.22;1771782;81;21183;-85
2021/06/20 02:46:50;;;;;;;1.20;1.00;;;;;;;39.79;45.00;161686.84;1771451;81;21182;-85
2021/06/20 02:49:24;;;;;;;1.17;0.98;;;;;;;39.73;45.07;161670.72;1772254;81;21159;-85
2021/06/20 02:51:58;;;;;;;2.10;1.00;;;;;;;39.73;45.09;161670.72;1770908;81;21187;-85
2021/06/20 02:54:30;;;;;;;2.65;1.10;;;;;;;39.62;45.21;161641.22;1771027;80;21226;-85
2021/06/20 02:57:02;;;;;;;1.92;1.37;;;;;;;39.63;45.18;161643.91;1771731;81;21333;-85
2021/06/20 02:59:35;;;;;;;1.22;1.12;;;;;;;39.63;45.18;161643.91;1770843;81;21218;-85
2021/06/20 03:02:07;;;;;;;2.25;1.02;;;;;;;39.57;45.17;161627.84;1770988;81;21214;-85
2021/06/20 03:04:39;;;;;;;1.10;0.93;;;;;;;39.57;45.17;161627.84;1772057;79;21768;-85
2021/06/20 03:07:13;;;;;;;1.10;1.00;;;;;;;39.56;45.38;161625.16;1771812;81;21348;-85
2021/06/20 03:09:45;;;;;;;1.60;1.10;;;;;;;39.56;45.37;161626.47;1772018;81;21187;-85
2021/06/20 03:12:18;;;;;;;2.72;1.27;;;;;;;39.52;45.51;161615.78;1770928;81;21163;-85
2021/06/20 03:14:50;;;;;;;2.25;1.20;;;;;;;39.52;45.51;161615.78;1771863;81;21416;-85
2021/06/20 03:17:23;;;;;;;1.22;1.10;;;;;;;39.52;45.43;161614.41;1772683;81;21238;-85
2021/06/20 03:19:55;;;;;;;2.55;1.15;;;;;;;39.91;45.07;161719.03;1771891;81;21305;-85
2021/06/20 03:22:27;;;;;;;1.45;1.10;;;;;;;39.65;45.18;161649.28;1770844;81;21217;-85
2021/06/20 03:25:00;;;;;;;1.92;1.05;;;;;;;39.58;45.31;161630.53;1772789;81;21364;-86
2021/06/20 03:27:32;;;;;;;2.02;1.40;;;;;;;39.59;45.28;161634.53;1762171;80;21317;-85
2021/06/20 03:30:05;;;;;;;1.70;1.20;;;;;;;39.59;45.32;161633.16;1778968;80;21155;-85
2021/06/20 03:32:38;;;;;;;1.10;1.00;;;;;;;39.59;45.33;161633.16;1778200;80;21746;-85
2021/06/20 03:35:11;;;;;;;2.60;1.10;;;;;;;39.58;45.34;161630.53;1772360;81;21785;-85
2021/06/20 03:37:44;;;;;;;2.00;1.05;;;;;;;39.57;45.33;161629.16;1770680;81;21218;-85
2021/06/20 03:40:17;;;;;;;4.90;1.27;;;;;;;39.63;45.25;161643.91;1770662;79;21210;-85
2021/06/20 03:42:49;;;;;;;1.75;1.12;;;;;;;39.69;45.07;161661.34;1771159;81;21340;-85
2021/06/20 03:45:23;;;;;;;1.07;0.90;;;;;;;39.64;45.16;161646.59;1770766;81;21163;-85
2021/06/20 03:47:56;;;;;;;4.12;1.37;;;;;;;39.59;45.19;161633.16;1771975;80;21658;-85
2021/06/20 03:50:28;;;;;;;1.40;0.88;;;;;;;39.54;45.26;161619.78;1771119;81;21182;-85
2021/06/20 03:53:01;;;;;;;2.77;1.20;;;;;;;39.54;45.19;161621.09;1770590;80;21171;-85
2021/06/20 03:55:33;;;;;;;1.45;1.02;;;;;;;39.54;45.19;161621.09;1770665;81;21190;-85
2021/06/20 03:58:06;;;;;;;1.65;1.25;;;;;;;39.50;45.25;161608.98;1770867;81;21232;-85
2021/06/20 04:00:38;;;;;;;1.22;1.12;;;;;;;39.54;45.15;161619.78;1770726;81;21195;-86
2021/06/20 04:03:14;;;;;;;2.95;1.00;;;;;;;39.47;45.27;161602.30;1772161;81;21694;-85
2021/06/20 04:05:46;;;;;;;1.75;1.20;;;;;;;39.49;45.22;161606.31;1772663;80;21241;-85
2021/06/20 04:08:18;;;;;;;2.12;1.00;;;;;;;39.56;45.04;161626.47;1773040;80;21388;-85
2021/06/20 04:10:50;;;;;;;1.57;1.22;;;;;;;39.58;44.98;161630.53;1772729;81;21876;-86
2021/06/20 04:13:23;;;;;;;1.32;1.17;;;;;;;39.61;44.81;161639.91;1772062;80;21170;-86
2021/06/20 04:15:55;;;;;;;2.20;1.17;;;;;;;39.61;44.81;161639.91;1771999;81;21219;-86
2021/06/20 04:18:28;;;;;;;1.20;1.10;;;;;;;39.53;44.89;161617.09;1772672;80;21198;-85
2021/06/20 04:21:00;;;;;;;1.75;1.00;;;;;;;39.53;44.89;161617.09;1770802;81;21199;-86
2021/06/20 04:23:32;;;;;;;1.22;0.95;;;;;;;39.45;44.95;161596.92;1772825;81;21231;-86
2021/06/20 04:26:05;;;;;;;2.92;1.25;;;;;;;39.53;44.80;161618.41;1770956;80;21187;-85
2021/06/20 04:28:38;;;;;;;1.70;1.07;;;;;;;39.61;44.64;161639.91;1770787;80;21168;-85
2021/06/20 04:31:11;;;;;;;1.17;0.95;;;;;;;39.63;44.71;161643.91;1771646;81;21222;-85
2021/06/20 04:33:44;;;;;;;0.88;0.85;;;;;;;39.64;44.56;161646.59;1772321;81;21195;-85
2021/06/20 04:36:17;;;;;;;2.10;1.10;;;;;;;39.61;44.58;161638.53;1771650;80;21167;-86
2021/06/20 04:38:49;;;;;;;1.62;1.00;;;;;;;39.60;44.56;161635.84;1770699;81;21387;-85
2021/06/20 04:41:23;;;;;;;1.15;0.93;;;;;;;39.46;44.78;161598.30;1760360;81;21183;-85
2021/06/20 04:43:58;;;;;;;2.77;1.05;;;;;;;39.50;44.75;161610.41;1772318;81;21344;-85
2021/06/20 04:46:35;;;;;;;1.92;1.15;;;;;;;39.55;44.65;161623.78;1773223;81;21195;-85
2021/06/20 04:49:09;;;;;;;2.83;1.30;;;;;;;39.57;44.38;161627.84;1772712;81;21274;-86
2021/06/20 04:51:42;;;;;;;3.58;1.00;;;;;;;39.57;44.38;161627.84;1772985;81;21344;-90
2021/06/20 04:54:14;;;;;;;2.20;1.15;;;;;;;39.57;44.54;161627.84;1771750;81;21832;-88
2021/06/20 04:56:46;;;;;;;2.20;1.17;;;;;;;39.57;44.54;161627.84;1771646;81;21317;-87
2021/06/20 04:59:19;;;;;;;2.55;1.20;;;;;;;39.48;44.74;161603.63;1771501;79;21258;-87
2021/06/20 05:01:51;;;;;;;1.60;0.95;;;;;;;39.52;44.56;161614.41;1773106;81;21368;-87
2021/06/20 05:04:23;;;;;;;1.22;0.82;;;;;;;39.52;44.56;161614.41;1757220;80;21329;-88
2021/06/20 05:06:56;;;;;;;1.40;1.15;;;;;;;39.56;44.62;161626.47;1770704;81;22552;-87
2021/06/20 05:09:28;;;;;;;2.83;1.00;;;;;;;39.57;44.60;161627.84;1771256;81;21237;-90
2021/06/20 05:12:01;;;;;;;1.40;1.20;;;;;;;39.72;44.31;161668.03;1772337;81;21365;-92
2021/06/20 05:14:42;;;;;;;1.75;0.90;;;;;;;39.74;44.20;161674.78;1771218;81;21222;-90
2021/06/20 05:17:17;;;;;;;1.57;1.25;;;;;;;39.74;44.20;161674.78;1770801;81;21813;-90
2021/06/20 05:19:49;;;;;;;2.83;1.00;;;;;;;39.78;44.11;161684.16;1772193;79;21734;-90
2021/06/20 05:22:22;;;;;;;1.27;1.05;;;;;;;39.81;44.10;161692.22;1772254;80;21349;-91
2021/06/20 05:24:55;;;;;;;2.52;1.10;;;;;;;39.83;44.15;161697.53;1772217;81;21241;-89
2021/06/20 05:27:27;;;;;;;1.17;1.07;;;;;;;39.83;44.13;161697.53;1772639;80;21156;-90
2021/06/20 05:30:00;;;;;;;1.95;1.02;;;;;;;39.84;44.14;161700.22;1772584;80;21233;-90
2021/06/20 05:32:32;;;;;;;2.92;1.50;;;;;;;39.91;44.08;161720.36;1771720;80;21247;-91
2021/06/20 05:35:05;;;;;;;3.42;1.22;;;;;;;39.91;44.08;161720.36;1771324;81;21305;-91
2021/06/20 05:37:38;;;;;;;4.08;1.57;;;;;;;39.93;43.99;161725.78;1771950;79;21358;-93
2021/06/20 05:40:11;;;;;;;2.70;0.90;;;;;;;39.95;43.93;161731.16;1771323;81;21857;-92
2021/06/20 05:42:43;;;;;;;0.98;0.93;;;;;;;39.98;43.88;161739.22;1771726;81;21330;-92
2021/06/20 05:45:16;;;;;;;1.65;1.07;;;;;;;39.96;43.90;161733.84;1772048;81;21368;-92
2021/06/20 05:47:50;;;;;;;2.90;1.20;;;;;;;40.13;43.58;161780.78;1759596;81;21167;-90
2021/06/20 05:50:23;;;;;;;3.08;1.12;;;;;;;40.17;43.44;161791.48;1771770;81;21182;-90
2021/06/20 05:52:56;;;;;;;1.15;0.82;;;;;;;39.92;43.84;161723.09;1771837;80;21872;-90
2021/06/20 05:55:28;;;;;;;3.00;1.02;;;;;;;39.94;43.82;161729.78;1772346;80;21368;-90
2021/06/20 05:58:00;;;;;;;5.05;1.00;;;;;;;39.85;43.97;161704.28;1771462;81;21812;-91
2021/06/20 06:00:33;;;;;;;2.00;0.95;;;;;;;39.89;43.94;161714.98;1771705;80;21266;-91
2021/06/20 06:03:06;;;;;;;1.98;1.00;;;;;;;39.88;43.92;161712.30;1771726;80;21316;-90
2021/06/20 06:05:39;;;;;;;2.25;1.10;;;;;;;39.92;43.87;161721.72;1773023;80;21189;-93
2021/06/20 06:08:11;;;;;;;1.27;0.80;;;;;;;39.93;43.64;161725.78;1771107;80;21832;-91
2021/06/20 06:10:45;;;;;;;3.10;0.85;;;;;;;39.93;43.64;161725.78;1770071;81;21179;-88
2021/06/20 06:13:17;;;;;;;1.37;1.10;;;;;;;39.97;43.71;161736.53;1770309;81;21183;-88
2021/06/20 06:15:50;;;;;;;1.55;1.05;;;;;;;40.01;43.52;161747.22;1771250;80;21214;-89
2021/06/20 06:18:22;;;;;;;1.57;1.10;;;;;;;40.18;43.35;161794.17;1770129;81;21325;-91
2021/06/20 06:20:55;;;;;;;1.35;1.20;;;;;;;40.20;43.18;161799.55;1770226;81;21213;-91
2021/06/20 06:23:27;;;;;;;2.10;1.07;;;;;;;40.33;42.88;161834.48;1771409;81;21745;-91
2021/06/20 06:25:59;;;;;;;2.45;1.10;;;;;;;40.28;42.85;161821.00;1772152;81;21344;-91
2021/06/20 06:28:33;;;;;;;1.77;0.90;;;;;;;40.27;42.87;161818.36;1770157;81;21207;-92
2021/06/20 06:31:05;;;;;;;3.95;1.07;;;;;;;40.26;42.83;161815.67;1770108;81;21217;-89
2021/06/20 06:33:37;;;;;;;2.60;1.00;;;;;;;40.10;43.04;161772.72;1770410;81;21227;-90
2021/06/20 06:36:10;;;;;;;1.27;0.93;;;;;;;39.97;43.29;161737.84;1771215;81;21214;-91
2021/06/20 06:38:43;;;;;;;3.55;1.80;;;;;;;39.93;43.38;161724.47;1770191;81;21211;-92
2021/06/20 06:41:18;;;;;;;1.22;0.80;;;;;;;39.88;43.51;161710.97;1770101;81;21218;-91
2021/06/20 06:43:50;;;;;;;1.47;0.95;;;;;;;39.85;43.63;161702.91;1771127;81;21190;-93
2021/06/20 06:46:22;;;;;;;2.12;1.00;;;;;;;39.83;43.84;161697.53;1770095;81;21175;-91
2021/06/20 06:48:55;;;;;;;1.75;0.90;;;;;;;39.93;43.78;161727.09;1771873;81;22447;-90
2021/06/20 06:51:27;;;;;;;3.25;1.00;;;;;;;40.04;43.63;161755.28;1770683;81;21277;-91
2021/06/20 06:53:59;;;;;;;2.50;1.02;;;;;;;40.09;43.83;161768.72;1768762;81;21797;-87
2021/06/20 06:56:31;;;;;;;1.92;1.10;;;;;;;40.20;43.45;161798.23;1750598;81;21848;-92
2021/06/20 06:59:04;;;;;;;1.42;1.32;;;;;;;40.39;43.27;161850.61;1761312;81;21297;-92
2021/06/20 07:01:37;;;;;;;1.75;1.00;;;;;;;40.47;43.31;161870.69;1737780;81;21228;-91
2021/06/20 07:04:09;;;;;;;1.10;0.90;;;;;;;40.56;43.22;161896.20;1757578;81;21309;-91
2021/06/20 07:06:42;;;;;;;2.35;1.37;;;;;;;40.61;42.97;161909.66;1770953;81;21356;-91
2021/06/20 07:09:14;;;;;;;1.62;1.00;;;;;;;40.51;43.14;161881.44;1771048;81;21353;-91
2021/06/20 07:11:47;;;;;;;0.80;0.80;;;;;;;40.56;43.09;161896.20;1770826;81;21718;-89
2021/06/20 07:14:19;;;;;;;1.57;0.90;;;;;;;40.60;43.06;161905.59;1771321;80;21285;-91
2021/06/20 07:16:52;;;;;;;3.10;0.78;;;;;;;40.66;42.93;161921.72;1771234;80;21289;-90
2021/06/20 07:19:25;;;;;;;2.05;0.75;;;;;;;40.85;42.53;161974.11;1749254;81;21218;-90
2021/06/20 07:21:57;;;;;;;2.47;0.90;;;;;;;40.63;42.67;161913.66;1747333;80;21254;-90
2021/06/20 07:24:29;;;;;;;2.42;0.90;;;;;;;40.88;42.28;161982.13;1770255;81;21352;-87
2021/06/20 07:27:01;;;;;;;0.90;0.80;;;;;;;40.65;42.56;161919.03;1734639;81;21915;-90
2021/06/20 07:29:34;;;;;;;2.35;0.90;;;;;;;40.90;42.13;161986.19;1741866;81;21421;-87
2021/06/20 07:32:07;;;;;;;1.55;0.88;;;;;;;40.91;42.00;161990.19;1741762;82;21414;-87
2021/06/20 07:34:39;;;;;;;1.10;0.80;;;;;;;41.03;41.77;162022.41;1742314;82;21699;-87
2021/06/20 07:37:11;;;;;;;2.58;1.00;;;;;;;41.06;41.60;162030.48;1742400;82;21357;-87
2021/06/20 07:39:44;;;;;;;2.58;0.90;;;;;;;40.97;41.59;162006.33;1741701;82;21787;-89
2021/06/20 07:42:16;;;;;;;2.65;1.07;;;;;;;40.81;41.62;161963.36;1742582;81;21371;-93
2021/06/20 07:44:49;;;;;;;2.75;1.50;;;;;;;40.71;41.78;161935.11;1741785;82;21319;-90
2021/06/20 07:47:22;;;;;;;1.20;0.82;;;;;;;40.81;41.61;161963.36;1741445;82;21378;-89
2021/06/20 07:49:54;;;;;;;1.35;0.80;;;;;;;40.83;41.47;161968.73;1741796;81;21351;-90
2021/06/20 07:52:27;;;;;;;2.90;1.15;;;;;;;40.82;41.43;161964.69;1740437;81;21220;-91
2021/06/20 07:54:59;;;;;;;1.00;0.80;;;;;;;40.79;41.34;161957.98;1741631;82;21909;-90
2021/06/20 07:57:31;;;;;;;3.72;1.10;;;;;;;40.84;41.22;161970.06;1740341;82;21232;-91
2021/06/20 08:00:05;;;;;;;2.15;0.70;;;;;;;40.63;41.38;161913.66;1740434;81;21219;-90
2021/06/20 08:02:41;;;;;;;1.55;0.90;;;;;;;40.58;41.48;161901.59;1741965;81;21733;-91
2021/06/20 08:05:14;;;;;;;2.02;0.78;;;;;;;40.65;41.53;161920.34;1741898;82;21326;-91
2021/06/20 08:07:48;;;;;;;1.20;0.88;;;;;;;40.66;41.55;161923.03;1742002;82;21272;-91
2021/06/20 08:10:20;;;;;;;1.25;0.90;;;;;;;40.69;41.54;161931.09;1741146;80;21881;-90
2021/06/20 08:12:53;;;;;;;2.90;1.15;;;;;;;40.71;41.45;161936.47;1742518;81;21255;-90
2021/06/20 08:15:26;;;;;;;0.85;0.80;;;;;;;40.76;41.37;161949.92;1740325;81;21649;-90
2021/06/20 08:17:59;;;;;;;2.15;0.95;;;;;;;40.76;41.42;161949.92;1741555;82;21322;-90
2021/06/20 08:20:31;;;;;;;2.85;0.90;;;;;;;40.80;41.48;161960.67;1742929;82;21303;-90
2021/06/20 08:23:04;;;;;;;2.92;0.82;;;;;;;40.86;41.55;161976.75;1741878;81;21259;-91
2021/06/20 08:25:36;;;;;;;2.55;0.90;;;;;;;40.89;41.46;161984.81;1741020;82;21292;-90
2021/06/20 08:28:08;;;;;;;2.45;1.10;;;;;;;40.92;41.65;161992.89;1742652;81;21212;-90
2021/06/20 08:30:41;;;;;;;2.15;0.90;;;;;;;40.98;41.49;162008.97;1740707;81;21172;-89
2021/06/20 08:33:14;;;;;;;1.70;0.82;;;;;;;41.08;41.34;162035.86;1740272;82;21304;-90
2021/06/20 08:35:46;;;;;;;2.17;0.80;;;;;;;41.08;41.25;162035.86;1741134;81;21323;-90
2021/06/20 08:38:19;;;;;;;1.70;1.05;;;;;;;41.12;41.20;162047.94;1742387;82;21263;-91
2021/06/20 08:40:53;;;;;;;0.88;0.70;;;;;;;41.34;40.71;162105.67;1742668;82;21359;-91
2021/06/20 08:43:26;;;;;;;1.15;0.80;;;;;;;41.41;40.45;162124.50;1742071;81;21398;-91
2021/06/20 08:45:58;;;;;;;1.25;0.80;;;;;;;41.47;40.36;162141.95;1740444;81;21271;-90
2021/06/20 08:48:30;;;;;;;0.90;0.70;;;;;;;41.51;40.25;162152.66;1740254;81;21184;-90
2021/06/20 08:51:03;;;;;;;5.42;1.70;;;;;;;41.60;40.21;162176.92;1730543;82;21354;-91
2021/06/20 08:53:36;;;;;;;1.55;0.70;;;;;;;41.67;40.09;162194.37;1742276;81;21161;-91
2021/06/20 08:56:08;;;;;;;2.98;0.80;;;;;;;41.73;40.06;162211.78;1730499;82;21778;-90
2021/06/20 08:58:40;;;;;;;9.18;2.25;;;;;;;41.75;40.12;162217.16;1742660;81;21886;-90
2021/06/20 09:01:13;;;;;;;4.40;0.78;;;;;;;42.21;39.43;162340.77;1741518;81;21240;-90
2021/06/20 09:03:46;;;;;;;0.72;0.68;;;;;;;41.89;39.92;162256.16;1742184;82;21350;-90
2021/06/20 09:06:23;;;;;;;3.45;0.90;;;;;;;42.01;39.78;162287.06;1742169;82;21323;-91
2021/06/20 09:09:00;;;;;;;1.75;1.07;;;;;;;42.09;39.71;162309.91;1741680;81;21810;-90
2021/06/20 09:11:34;;;;;;;2.77;0.90;;;;;;;42.53;39.17;162428.16;1742356;80;21401;-90
2021/06/20 09:14:14;;;;;;;4.20;1.00;;;;;;;42.55;39.08;162433.53;1741466;82;21334;-90
2021/06/20 09:16:52;;;;;;;;;;;;;;;42.62;38.98;162452.31;1745282;82;21339;-91
2021/06/20 09:19:35;;;;;;;7.45;1.25;;;;;;;42.69;38.84;162471.16;1741361;82;20583;-91
2021/06/20 09:22:11;;;;;;;1.22;0.85;;;;;;;42.59;38.88;162442.92;1740372;81;21272;-89
2021/06/20 09:24:43;;;;;;;2.22;1.00;;;;;;;42.58;38.98;162440.23;1741946;82;21239;-91
2021/06/20 09:27:15;;;;;;;1.47;0.88;;;;;;;42.54;38.97;162430.84;1741489;81;21366;-91
2021/06/20 09:29:48;;;;;;;2.33;1.15;;;;;;;42.62;38.79;162452.31;1741965;81;21370;-91
2021/06/20 09:32:20;;;;;;;2.42;1.00;;;;;;;42.75;38.69;162487.31;1741700;82;21350;-91
2021/06/20 09:34:54;;;;;;;1.45;0.90;;;;;;;43.01;38.57;162557.19;1741309;81;21160;-91
2021/06/20 09:37:29;;;;;;;1.35;0.98;;;;;;;42.96;38.36;162543.73;1741426;81;21280;-92
2021/06/20 09:40:15;;;;;;;2.22;1.00;;;;;;;43.00;38.25;162554.50;1742023;82;21338;-92
2021/06/20 09:42:49;;;;;;;2.70;0.90;;;;;;;43.10;38.05;162581.37;1740944;81;21236;-91
2021/06/20 09:45:32;;;;;;;1.32;0.80;;;;;;;43.19;38.01;162606.97;1742071;81;21402;-91
2021/06/20 09:48:05;;;;;;;0.80;0.80;;;;;;;43.21;38.02;162612.36;1742614;82;21858;-91
2021/06/20 09:50:41;;;;;;;3.67;1.00;;;;;;;43.25;37.93;162621.75;1741915;81;21299;-91
2021/06/20 09:53:13;;;;;;;1.45;0.60;;;;;;;43.38;37.69;162656.70;1740935;81;21236;-91
2021/06/20 09:55:46;;;;;;;2.17;0.68;;;;;;;43.41;37.53;162664.73;1742238;82;21212;-90
2021/06/20 09:58:23;;;;;;;1.52;1.10;;;;;;;43.49;37.43;162686.28;1742081;82;21319;-91
2021/06/20 10:00:55;;;;;;;2.35;1.12;;;;;;;43.53;37.27;162697.05;1730307;82;21819;-92
2021/06/20 10:03:27;;;;;;;2.17;1.20;;;;;;;43.59;37.15;162713.22;1741785;82;21307;-91
2021/06/20 10:05:59;;;;;;;4.28;1.10;;;;;;;43.67;36.96;162736.06;1740575;81;21204;-91
2021/06/20 10:08:35;;;;;;;4.42;0.90;;;;;;;43.77;36.81;162761.58;1742892;82;21823;-92
2021/06/20 10:11:08;;;;;;;1.32;1.00;;;;;;;43.91;36.50;162801.98;1742384;82;21315;-93
2021/06/20 10:13:40;;;;;;;6.03;1.42;;;;;;;44.03;36.06;162834.25;1741165;81;21335;-91
2021/06/20 10:16:37;;;;;;;1.20;1.10;;;;;;;43.91;36.05;162800.66;1740984;81;21267;-92
2021/06/20 10:19:16;;;;;;;2.33;1.10;;;;;;;43.94;36.15;162808.69;1741028;82;21224;-92
2021/06/20 10:22:06;;;;;;;1.60;0.90;;;;;;;44.01;35.99;162828.87;1741563;81;21192;-92
2021/06/20 10:24:56;;;;;;;1.67;0.80;;;;;;;43.98;35.91;162819.47;1742437;81;21176;-91
2021/06/20 10:27:35;;;;;;;4.45;1.00;;;;;;;44.05;35.62;162838.27;1741350;82;21738;-92
2021/06/20 10:30:10;;;;;;;2.72;1.55;;;;;;;44.13;35.46;162861.14;1741591;81;21358;-91
2021/06/20 10:32:46;;;;;;;0.80;0.80;;;;;;;44.19;35.45;162877.31;1741050;82;21243;-91
2021/06/20 10:35:24;;;;;;;2.52;0.90;;;;;;;44.23;35.31;162888.03;1740962;82;21203;-91
2021/06/20 10:37:56;;;;;;;1.35;0.80;;;;;;;44.24;35.19;162889.41;1740926;82;21169;-92
2021/06/20 10:40:44;;;;;;;1.62;0.98;;;;;;;44.61;34.92;162988.98;1741091;82;21865;-92
2021/06/20 10:43:19;;;;;;;3.87;1.30;;;;;;;44.46;34.96;162949.94;1741497;82;21358;-92
2021/06/20 10:45:51;;;;;;;2.42;0.80;;;;;;;44.40;35.08;162933.83;1741799;81;21248;-92
2021/06/20 10:48:32;;;;;;;1.47;1.00;;;;;;;44.43;35.09;162940.53;1740266;82;21177;-91
2021/06/20 10:51:04;;;;;;;2.02;0.88;;;;;;;44.42;35.06;162939.22;1741733;81;21766;-92
2021/06/20 10:53:42;;;;;;;3.00;1.65;;;;;;;44.51;35.01;162963.41;1742066;81;21374;-92
2021/06/20 10:56:30;;;;;;;3.17;1.32;;;;;;;44.54;35.08;162970.12;1741201;81;21685;-92
2021/06/20 10:59:03;;;;;;;3.75;1.60;;;;;;;44.56;35.10;162976.89;1740898;82;21692;-94
2021/06/20 11:01:43;;;;;;;2.62;1.25;;;;;;;44.61;35.06;162990.31;1741207;82;21216;-92
2021/06/20 11:04:16;;;;;;;2.83;1.30;;;;;;;44.65;35.13;163001.14;1741193;81;21806;-92
2021/06/20 11:06:57;;;;;;;2.95;1.12;;;;;;;44.79;35.04;163038.81;1742141;81;21204;-92
2021/06/20 11:09:38;;;;;;;2.40;1.30;;;;;;;44.82;35.07;163045.53;1741657;81;21327;-92
2021/06/20 11:12:16;;;;;;;1.17;0.95;;;;;;;44.82;35.12;163045.53;1741008;81;21169;-92
2021/06/20 11:14:54;;;;;;;1.70;1.17;;;;;;;44.88;35.10;163063.02;1742768;79;21393;-91
2021/06/20 11:17:34;;;;;;;3.17;1.22;;;;;;;44.89;35.16;163065.72;1742338;82;21256;-91
2021/06/20 11:20:14;;;;;;;3.00;1.30;;;;;;;44.99;34.99;163092.61;1741175;82;21721;-91
2021/06/20 11:22:47;;;;;;;1.22;1.12;;;;;;;45.13;34.85;163130.34;1740945;81;21778;-92
2021/06/20 11:25:23;;;;;;;2.30;1.37;;;;;;;45.19;34.57;163146.47;1742745;82;21755;-91
2021/06/20 11:27:56;;;;;;;2.90;1.20;;;;;;;45.27;34.50;163167.98;1741871;81;21743;-91
2021/06/20 11:30:28;;;;;;;4.40;1.17;;;;;;;45.35;34.36;163189.55;1742751;81;21318;-91
2021/06/20 11:33:00;;;;;;;1.15;1.05;;;;;;;45.40;34.21;163204.41;1742615;82;21865;-92
2021/06/20 11:35:34;;;;;;;2.98;1.10;;;;;;;45.46;34.12;163219.20;1742246;81;21363;-92
2021/06/20 11:38:06;;;;;;;1.42;1.10;;;;;;;45.44;33.97;163215.13;1741706;82;21379;-91
2021/06/20 11:40:39;;;;;;;1.35;1.10;;;;;;;45.47;33.84;163221.91;1740988;81;21188;-92
2021/06/20 11:43:11;;;;;;;3.05;1.27;;;;;;;45.48;33.82;163224.59;1741164;81;21363;-93
2021/06/20 11:45:43;;;;;;;2.08;1.02;;;;;;;45.50;33.60;163231.31;1740949;82;21346;-92
2021/06/20 11:48:16;;;;;;;1.27;0.65;;;;;;;45.52;33.53;163235.33;1741105;81;21228;-91
2021/06/20 11:50:49;;;;;;;2.08;1.17;;;;;;;45.55;33.54;163244.73;1740916;82;21189;-91
2021/06/20 11:53:22;;;;;;;3.25;1.00;;;;;;;45.64;33.48;163269.00;1741116;82;21307;-91
2021/06/20 11:55:54;;;;;;;3.55;1.20;;;;;;;45.72;33.30;163289.19;1742440;82;21322;-91
2021/06/20 11:58:27;;;;;;;3.90;1.00;;;;;;;45.73;33.29;163293.22;1742412;81;21338;-90
2021/06/20 12:01:00;;;;;;;6.47;1.40;;;;;;;45.75;33.25;163297.28;1742166;81;21735;-90